sensor_id;sensor_type;location;lat;lon;timestamp;P1;durP1;ratioP1;P2;durP2;ratioP2
75038;SDS011;63609;49.992;14.512;2023-05-20T00:03:31;27.63;;;14.95;;
75038;SDS011;63609;49.992;14.512;2023-05-20T00:05:58;25.42;;;13.88;;
75038;SDS011;63609;49.992;14.512;2023-05-20T00:08:25;28.83;;;14.57;;
75038;SDS011;63609;49.992;14.512;2023-05-20T00:10:52;24.23;;;13.35;;
75038;SDS011;63609;49.992;14.512;2023-05-20T00:13:19;28.05;;;13.40;;
75038;SDS011;63609;49.992;14.512;2023-05-20T00:15:46;25.40;;;13.70;;
75038;SDS011;63609;49.992;14.512;2023-05-20T00:18:13;28.98;;;14.25;;
75038;SDS011;63609;49.992;14.512;2023-05-20T00:20:39;30.25;;;13.68;;
75038;SDS011;63609;49.992;14.512;2023-05-20T00:23:06;28.45;;;14.27;;
75038;SDS011;63609;49.992;14.512;2023-05-20T00:25:33;31.08;;;14.60;;
75038;SDS011;63609;49.992;14.512;2023-05-20T00:28:00;31.08;;;15.00;;
75038;SDS011;63609;49.992;14.512;2023-05-20T00:30:27;27.83;;;13.85;;
75038;SDS011;63609;49.992;14.512;2023-05-20T00:32:54;31.02;;;13.13;;
75038;SDS011;63609;49.992;14.512;2023-05-20T00:35:21;31.67;;;14.85;;
75038;SDS011;63609;49.992;14.512;2023-05-20T00:37:48;30.30;;;14.57;;
75038;SDS011;63609;49.992;14.512;2023-05-20T00:40:15;32.17;;;14.82;;
75038;SDS011;63609;49.992;14.512;2023-05-20T00:42:42;34.60;;;14.30;;
75038;SDS011;63609;49.992;14.512;2023-05-20T00:45:09;28.70;;;14.98;;
75038;SDS011;63609;49.992;14.512;2023-05-20T00:47:37;29.48;;;15.57;;
75038;SDS011;63609;49.992;14.512;2023-05-20T00:50:06;33.35;;;14.25;;
75038;SDS011;63609;49.992;14.512;2023-05-20T00:52:37;29.45;;;13.68;;
75038;SDS011;63609;49.992;14.512;2023-05-20T00:55:04;29.30;;;14.30;;
75038;SDS011;63609;49.992;14.512;2023-05-20T00:57:32;32.05;;;14.82;;
75038;SDS011;63609;49.992;14.512;2023-05-20T00:59:59;27.65;;;14.25;;
75038;SDS011;63609;49.992;14.512;2023-05-20T01:02:27;29.58;;;14.65;;
75038;SDS011;63609;49.992;14.512;2023-05-20T01:04:55;30.58;;;15.60;;
75038;SDS011;63609;49.992;14.512;2023-05-20T01:07:23;30.08;;;14.52;;
75038;SDS011;63609;49.992;14.512;2023-05-20T01:09:51;31.45;;;13.98;;
75038;SDS011;63609;49.992;14.512;2023-05-20T01:12:21;28.15;;;14.05;;
75038;SDS011;63609;49.992;14.512;2023-05-20T01:14:55;30.92;;;14.38;;
75038;SDS011;63609;49.992;14.512;2023-05-20T01:17:29;28.65;;;14.27;;
75038;SDS011;63609;49.992;14.512;2023-05-20T01:20:01;30.08;;;14.13;;
75038;SDS011;63609;49.992;14.512;2023-05-20T01:22:31;27.45;;;14.18;;
75038;SDS011;63609;49.992;14.512;2023-05-20T01:24:58;28.50;;;13.95;;
75038;SDS011;63609;49.992;14.512;2023-05-20T01:27:25;32.13;;;15.10;;
75038;SDS011;63609;49.992;14.512;2023-05-20T01:29:52;29.98;;;14.00;;
75038;SDS011;63609;49.992;14.512;2023-05-20T01:32:21;24.45;;;13.30;;
75038;SDS011;63609;49.992;14.512;2023-05-20T01:34:51;30.48;;;14.60;;
75038;SDS011;63609;49.992;14.512;2023-05-20T01:37:19;29.30;;;14.43;;
75038;SDS011;63609;49.992;14.512;2023-05-20T01:39:49;29.30;;;14.90;;
75038;SDS011;63609;49.992;14.512;2023-05-20T01:42:17;28.65;;;14.57;;
75038;SDS011;63609;49.992;14.512;2023-05-20T01:44:47;30.95;;;14.07;;
75038;SDS011;63609;49.992;14.512;2023-05-20T01:47:13;30.33;;;15.52;;
75038;SDS011;63609;49.992;14.512;2023-05-20T01:49:40;27.33;;;14.50;;
75038;SDS011;63609;49.992;14.512;2023-05-20T01:52:07;31.48;;;13.68;;
75038;SDS011;63609;49.992;14.512;2023-05-20T01:54:34;29.52;;;14.30;;
75038;SDS011;63609;49.992;14.512;2023-05-20T01:57:01;31.27;;;13.65;;
75038;SDS011;63609;49.992;14.512;2023-05-20T01:59:28;26.70;;;12.77;;
75038;SDS011;63609;49.992;14.512;2023-05-20T02:01:55;27.40;;;14.30;;
75038;SDS011;63609;49.992;14.512;2023-05-20T02:04:23;30.77;;;14.35;;
75038;SDS011;63609;49.992;14.512;2023-05-20T02:06:50;29.70;;;14.25;;
75038;SDS011;63609;49.992;14.512;2023-05-20T02:09:17;29.83;;;13.27;;
75038;SDS011;63609;49.992;14.512;2023-05-20T02:11:44;31.27;;;14.60;;
75038;SDS011;63609;49.992;14.512;2023-05-20T02:14:11;31.48;;;14.57;;
75038;SDS011;63609;49.992;14.512;2023-05-20T02:16:38;31.75;;;14.18;;
75038;SDS011;63609;49.992;14.512;2023-05-20T02:19:05;30.05;;;14.68;;
75038;SDS011;63609;49.992;14.512;2023-05-20T02:21:38;35.03;;;14.52;;
75038;SDS011;63609;49.992;14.512;2023-05-20T02:24:08;27.48;;;14.27;;
75038;SDS011;63609;49.992;14.512;2023-05-20T02:26:35;36.30;;;15.18;;
75038;SDS011;63609;49.992;14.512;2023-05-20T02:29:02;30.80;;;14.90;;
75038;SDS011;63609;49.992;14.512;2023-05-20T02:31:29;33.38;;;14.77;;
75038;SDS011;63609;49.992;14.512;2023-05-20T02:33:56;33.35;;;14.73;;
75038;SDS011;63609;49.992;14.512;2023-05-20T02:36:23;35.63;;;16.15;;
75038;SDS011;63609;49.992;14.512;2023-05-20T02:38:50;35.05;;;14.90;;
75038;SDS011;63609;49.992;14.512;2023-05-20T02:41:16;33.60;;;15.15;;
75038;SDS011;63609;49.992;14.512;2023-05-20T02:43:45;31.15;;;15.15;;
75038;SDS011;63609;49.992;14.512;2023-05-20T02:46:12;30.48;;;14.38;;
75038;SDS011;63609;49.992;14.512;2023-05-20T02:48:41;31.50;;;14.75;;
75038;SDS011;63609;49.992;14.512;2023-05-20T02:51:08;33.08;;;15.93;;
75038;SDS011;63609;49.992;14.512;2023-05-20T02:53:34;30.60;;;14.27;;
75038;SDS011;63609;49.992;14.512;2023-05-20T02:56:02;26.50;;;14.27;;
75038;SDS011;63609;49.992;14.512;2023-05-20T02:58:29;31.65;;;14.60;;
75038;SDS011;63609;49.992;14.512;2023-05-20T03:00:57;34.13;;;15.15;;
75038;SDS011;63609;49.992;14.512;2023-05-20T03:03:24;33.15;;;14.88;;
75038;SDS011;63609;49.992;14.512;2023-05-20T03:05:52;30.77;;;13.82;;
75038;SDS011;63609;49.992;14.512;2023-05-20T03:08:20;29.98;;;14.30;;
75038;SDS011;63609;49.992;14.512;2023-05-20T03:10:48;29.65;;;14.55;;
75038;SDS011;63609;49.992;14.512;2023-05-20T03:13:16;28.58;;;13.73;;
75038;SDS011;63609;49.992;14.512;2023-05-20T03:15:43;30.20;;;14.25;;
75038;SDS011;63609;49.992;14.512;2023-05-20T03:18:11;31.85;;;14.73;;
75038;SDS011;63609;49.992;14.512;2023-05-20T03:20:39;26.95;;;12.98;;
75038;SDS011;63609;49.992;14.512;2023-05-20T03:23:07;28.10;;;13.13;;
75038;SDS011;63609;49.992;14.512;2023-05-20T03:25:36;28.67;;;14.30;;
75038;SDS011;63609;49.992;14.512;2023-05-20T03:28:04;31.45;;;15.05;;
75038;SDS011;63609;49.992;14.512;2023-05-20T03:30:34;34.08;;;15.02;;
75038;SDS011;63609;49.992;14.512;2023-05-20T03:33:03;30.35;;;13.80;;
75038;SDS011;63609;49.992;14.512;2023-05-20T03:35:31;34.83;;;15.27;;
75038;SDS011;63609;49.992;14.512;2023-05-20T03:37:58;30.73;;;14.10;;
75038;SDS011;63609;49.992;14.512;2023-05-20T03:40:27;31.25;;;14.23;;
75038;SDS011;63609;49.992;14.512;2023-05-20T03:42:54;27.27;;;13.20;;
75038;SDS011;63609;49.992;14.512;2023-05-20T03:45:22;28.55;;;15.13;;
75038;SDS011;63609;49.992;14.512;2023-05-20T03:48:01;29.05;;;13.98;;
75038;SDS011;63609;49.992;14.512;2023-05-20T03:50:31;28.35;;;13.48;;
75038;SDS011;63609;49.992;14.512;2023-05-20T03:52:59;29.38;;;13.13;;
75038;SDS011;63609;49.992;14.512;2023-05-20T03:55:31;25.90;;;12.52;;
75038;SDS011;63609;49.992;14.512;2023-05-20T03:58:00;29.55;;;14.50;;
75038;SDS011;63609;49.992;14.512;2023-05-20T04:00:27;31.02;;;14.60;;
75038;SDS011;63609;49.992;14.512;2023-05-20T04:02:57;32.83;;;14.77;;
75038;SDS011;63609;49.992;14.512;2023-05-20T04:05:25;30.38;;;15.05;;
75038;SDS011;63609;49.992;14.512;2023-05-20T04:07:53;30.92;;;14.48;;
75038;SDS011;63609;49.992;14.512;2023-05-20T04:10:23;34.95;;;15.07;;
75038;SDS011;63609;49.992;14.512;2023-05-20T04:12:50;37.58;;;14.95;;
75038;SDS011;63609;49.992;14.512;2023-05-20T04:15:20;35.83;;;16.15;;
75038;SDS011;63609;49.992;14.512;2023-05-20T04:17:54;34.15;;;16.63;;
75038;SDS011;63609;49.992;14.512;2023-05-20T04:20:22;31.52;;;15.73;;
75038;SDS011;63609;49.992;14.512;2023-05-20T04:22:53;31.05;;;14.45;;
75038;SDS011;63609;49.992;14.512;2023-05-20T04:25:20;31.25;;;15.45;;
75038;SDS011;63609;49.992;14.512;2023-05-20T04:27:47;29.88;;;14.75;;
75038;SDS011;63609;49.992;14.512;2023-05-20T04:30:15;31.13;;;14.45;;
75038;SDS011;63609;49.992;14.512;2023-05-20T04:32:45;38.80;;;14.85;;
75038;SDS011;63609;49.992;14.512;2023-05-20T04:35:13;35.80;;;15.48;;
75038;SDS011;63609;49.992;14.512;2023-05-20T04:37:43;32.80;;;15.07;;
75038;SDS011;63609;49.992;14.512;2023-05-20T04:40:13;29.85;;;15.63;;
75038;SDS011;63609;49.992;14.512;2023-05-20T04:42:41;30.52;;;14.43;;
75038;SDS011;63609;49.992;14.512;2023-05-20T04:45:11;29.83;;;14.60;;
75038;SDS011;63609;49.992;14.512;2023-05-20T04:47:40;33.90;;;14.25;;
75038;SDS011;63609;49.992;14.512;2023-05-20T04:50:07;32.63;;;15.20;;
75038;SDS011;63609;49.992;14.512;2023-05-20T04:52:40;33.15;;;15.00;;
75038;SDS011;63609;49.992;14.512;2023-05-20T04:55:09;31.77;;;16.05;;
75038;SDS011;63609;49.992;14.512;2023-05-20T04:57:37;28.77;;;13.95;;
75038;SDS011;63609;49.992;14.512;2023-05-20T05:00:09;33.88;;;15.60;;
75038;SDS011;63609;49.992;14.512;2023-05-20T05:02:39;36.75;;;15.48;;
75038;SDS011;63609;49.992;14.512;2023-05-20T05:05:06;32.78;;;16.02;;
75038;SDS011;63609;49.992;14.512;2023-05-20T05:07:33;35.58;;;16.75;;
75038;SDS011;63609;49.992;14.512;2023-05-20T05:10:01;34.42;;;15.55;;
75038;SDS011;63609;49.992;14.512;2023-05-20T05:12:29;33.60;;;16.13;;
75038;SDS011;63609;49.992;14.512;2023-05-20T05:14:57;30.20;;;14.18;;
75038;SDS011;63609;49.992;14.512;2023-05-20T05:17:26;30.08;;;14.77;;
75038;SDS011;63609;49.992;14.512;2023-05-20T05:19:55;29.45;;;13.95;;
75038;SDS011;63609;49.992;14.512;2023-05-20T05:22:24;27.02;;;15.23;;
75038;SDS011;63609;49.992;14.512;2023-05-20T05:24:51;29.05;;;15.48;;
75038;SDS011;63609;49.992;14.512;2023-05-20T05:27:19;29.80;;;13.85;;
75038;SDS011;63609;49.992;14.512;2023-05-20T05:29:46;31.67;;;14.30;;
75038;SDS011;63609;49.992;14.512;2023-05-20T05:32:13;27.90;;;14.25;;
75038;SDS011;63609;49.992;14.512;2023-05-20T05:34:42;27.98;;;14.48;;
75038;SDS011;63609;49.992;14.512;2023-05-20T05:37:09;30.75;;;13.80;;
75038;SDS011;63609;49.992;14.512;2023-05-20T05:39:36;32.17;;;14.88;;
75038;SDS011;63609;49.992;14.512;2023-05-20T05:42:04;29.60;;;14.98;;
75038;SDS011;63609;49.992;14.512;2023-05-20T05:44:33;32.55;;;14.50;;
75038;SDS011;63609;49.992;14.512;2023-05-20T05:47:01;31.17;;;14.45;;
75038;SDS011;63609;49.992;14.512;2023-05-20T05:49:28;33.80;;;16.10;;
75038;SDS011;63609;49.992;14.512;2023-05-20T05:51:56;30.80;;;14.15;;
75038;SDS011;63609;49.992;14.512;2023-05-20T05:54:23;30.55;;;15.73;;
75038;SDS011;63609;49.992;14.512;2023-05-20T05:56:51;31.65;;;15.18;;
75038;SDS011;63609;49.992;14.512;2023-05-20T05:59:19;30.85;;;14.80;;
75038;SDS011;63609;49.992;14.512;2023-05-20T06:01:48;31.27;;;14.82;;
75038;SDS011;63609;49.992;14.512;2023-05-20T06:04:17;30.65;;;14.32;;
75038;SDS011;63609;49.992;14.512;2023-05-20T06:06:44;32.17;;;16.10;;
75038;SDS011;63609;49.992;14.512;2023-05-20T06:09:11;29.05;;;14.55;;
75038;SDS011;63609;49.992;14.512;2023-05-20T06:11:40;30.05;;;14.95;;
75038;SDS011;63609;49.992;14.512;2023-05-20T06:14:08;30.42;;;14.43;;
75038;SDS011;63609;49.992;14.512;2023-05-20T06:16:35;28.38;;;14.60;;
75038;SDS011;63609;49.992;14.512;2023-05-20T06:19:03;28.85;;;14.93;;
75038;SDS011;63609;49.992;14.512;2023-05-20T06:21:31;30.05;;;14.50;;
75038;SDS011;63609;49.992;14.512;2023-05-20T06:23:58;29.90;;;14.10;;
75038;SDS011;63609;49.992;14.512;2023-05-20T06:26:25;28.60;;;14.02;;
75038;SDS011;63609;49.992;14.512;2023-05-20T06:28:53;30.85;;;14.65;;
75038;SDS011;63609;49.992;14.512;2023-05-20T06:31:21;28.88;;;13.52;;
75038;SDS011;63609;49.992;14.512;2023-05-20T06:33:50;30.10;;;15.27;;
75038;SDS011;63609;49.992;14.512;2023-05-20T06:36:17;30.88;;;14.77;;
75038;SDS011;63609;49.992;14.512;2023-05-20T06:38:45;28.50;;;13.88;;
75038;SDS011;63609;49.992;14.512;2023-05-20T06:41:14;28.73;;;13.85;;
75038;SDS011;63609;49.992;14.512;2023-05-20T06:43:41;24.70;;;13.43;;
75038;SDS011;63609;49.992;14.512;2023-05-20T06:46:33;30.00;;;13.75;;
75038;SDS011;63609;49.992;14.512;2023-05-20T06:49:07;26.40;;;12.82;;
75038;SDS011;63609;49.992;14.512;2023-05-20T06:51:35;27.05;;;13.23;;
75038;SDS011;63609;49.992;14.512;2023-05-20T06:54:02;25.77;;;14.20;;
75038;SDS011;63609;49.992;14.512;2023-05-20T06:56:30;24.55;;;12.10;;
75038;SDS011;63609;49.992;14.512;2023-05-20T06:58:58;24.35;;;12.80;;
75038;SDS011;63609;49.992;14.512;2023-05-20T07:01:26;27.85;;;13.38;;
75038;SDS011;63609;49.992;14.512;2023-05-20T07:03:54;24.83;;;12.50;;
75038;SDS011;63609;49.992;14.512;2023-05-20T07:06:23;24.33;;;14.02;;
75038;SDS011;63609;49.992;14.512;2023-05-20T07:08:50;26.17;;;13.80;;
75038;SDS011;63609;49.992;14.512;2023-05-20T07:11:17;25.17;;;13.38;;
75038;SDS011;63609;49.992;14.512;2023-05-20T07:13:44;25.70;;;12.77;;
75038;SDS011;63609;49.992;14.512;2023-05-20T07:16:11;25.35;;;12.88;;
75038;SDS011;63609;49.992;14.512;2023-05-20T07:18:43;24.27;;;12.43;;
75038;SDS011;63609;49.992;14.512;2023-05-20T07:21:10;24.95;;;12.52;;
75038;SDS011;63609;49.992;14.512;2023-05-20T07:26:15;23.45;;;12.88;;
75038;SDS011;63609;49.992;14.512;2023-05-20T07:28:43;24.48;;;13.07;;
75038;SDS011;63609;49.992;14.512;2023-05-20T07:31:11;23.52;;;12.48;;
75038;SDS011;63609;49.992;14.512;2023-05-20T07:33:43;23.55;;;13.20;;
75038;SDS011;63609;49.992;14.512;2023-05-20T07:36:10;24.80;;;12.52;;
75038;SDS011;63609;49.992;14.512;2023-05-20T07:38:39;23.20;;;12.00;;
75038;SDS011;63609;49.992;14.512;2023-05-20T07:41:22;23.63;;;12.77;;
75038;SDS011;63609;49.992;14.512;2023-05-20T07:43:49;25.08;;;13.55;;
75038;SDS011;63609;49.992;14.512;2023-05-20T07:46:17;23.60;;;12.30;;
75038;SDS011;63609;49.992;14.512;2023-05-20T07:48:46;23.48;;;12.60;;
75038;SDS011;63609;49.992;14.512;2023-05-20T07:51:14;21.30;;;12.52;;
75038;SDS011;63609;49.992;14.512;2023-05-20T07:53:41;24.63;;;12.68;;
75038;SDS011;63609;49.992;14.512;2023-05-20T07:56:09;23.23;;;12.45;;
75038;SDS011;63609;49.992;14.512;2023-05-20T07:58:36;24.52;;;12.82;;
75038;SDS011;63609;49.992;14.512;2023-05-20T08:01:09;22.17;;;11.60;;
75038;SDS011;63609;49.992;14.512;2023-05-20T08:03:37;21.63;;;12.50;;
75038;SDS011;63609;49.992;14.512;2023-05-20T08:06:11;21.40;;;12.07;;
75038;SDS011;63609;49.992;14.512;2023-05-20T08:08:40;22.75;;;12.18;;
75038;SDS011;63609;49.992;14.512;2023-05-20T08:11:13;20.52;;;12.00;;
75038;SDS011;63609;49.992;14.512;2023-05-20T08:13:40;24.00;;;12.43;;
75038;SDS011;63609;49.992;14.512;2023-05-20T08:16:08;22.70;;;11.93;;
75038;SDS011;63609;49.992;14.512;2023-05-20T08:18:35;21.50;;;11.90;;
75038;SDS011;63609;49.992;14.512;2023-05-20T08:21:04;22.70;;;13.13;;
75038;SDS011;63609;49.992;14.512;2023-05-20T08:23:35;21.73;;;12.20;;
75038;SDS011;63609;49.992;14.512;2023-05-20T08:26:06;19.52;;;11.80;;
75038;SDS011;63609;49.992;14.512;2023-05-20T08:28:36;21.50;;;12.32;;
75038;SDS011;63609;49.992;14.512;2023-05-20T08:31:03;22.90;;;11.77;;
75038;SDS011;63609;49.992;14.512;2023-05-20T08:33:31;22.27;;;11.23;;
75038;SDS011;63609;49.992;14.512;2023-05-20T08:35:58;19.95;;;12.07;;
75038;SDS011;63609;49.992;14.512;2023-05-20T08:38:27;20.73;;;11.85;;
75038;SDS011;63609;49.992;14.512;2023-05-20T08:40:55;20.80;;;12.50;;
75038;SDS011;63609;49.992;14.512;2023-05-20T08:43:23;20.20;;;11.50;;
75038;SDS011;63609;49.992;14.512;2023-05-20T08:45:51;17.08;;;9.82;;
75038;SDS011;63609;49.992;14.512;2023-05-20T08:48:19;21.20;;;12.27;;
75038;SDS011;63609;49.992;14.512;2023-05-20T08:50:49;20.17;;;11.90;;
75038;SDS011;63609;49.992;14.512;2023-05-20T08:53:17;18.25;;;11.50;;
75038;SDS011;63609;49.992;14.512;2023-05-20T08:55:45;20.02;;;11.70;;
75038;SDS011;63609;49.992;14.512;2023-05-20T08:58:18;19.73;;;11.70;;
75038;SDS011;63609;49.992;14.512;2023-05-20T09:00:46;17.92;;;11.63;;
75038;SDS011;63609;49.992;14.512;2023-05-20T09:03:13;20.15;;;11.10;;
75038;SDS011;63609;49.992;14.512;2023-05-20T09:05:40;18.73;;;10.40;;
75038;SDS011;63609;49.992;14.512;2023-05-20T09:08:08;18.65;;;10.77;;
75038;SDS011;63609;49.992;14.512;2023-05-20T09:10:36;20.75;;;11.52;;
75038;SDS011;63609;49.992;14.512;2023-05-20T09:13:05;18.23;;;10.65;;
75038;SDS011;63609;49.992;14.512;2023-05-20T09:15:33;20.83;;;11.52;;
75038;SDS011;63609;49.992;14.512;2023-05-20T09:18:01;17.60;;;10.32;;
75038;SDS011;63609;49.992;14.512;2023-05-20T09:20:29;17.42;;;11.23;;
75038;SDS011;63609;49.992;14.512;2023-05-20T09:23:00;20.42;;;10.68;;
75038;SDS011;63609;49.992;14.512;2023-05-20T09:25:27;19.63;;;10.48;;
75038;SDS011;63609;49.992;14.512;2023-05-20T09:27:55;17.33;;;10.20;;
75038;SDS011;63609;49.992;14.512;2023-05-20T09:30:23;16.70;;;10.65;;
75038;SDS011;63609;49.992;14.512;2023-05-20T09:35:21;11.70;;;8.00;;
75038;SDS011;63609;49.992;14.512;2023-05-20T09:37:53;9.73;;;6.55;;
75038;SDS011;63609;49.992;14.512;2023-05-20T09:40:24;16.08;;;9.52;;
75038;SDS011;63609;49.992;14.512;2023-05-20T09:43:03;14.98;;;9.18;;
75038;SDS011;63609;49.992;14.512;2023-05-20T09:45:34;18.23;;;10.52;;
75038;SDS011;63609;49.992;14.512;2023-05-20T09:48:01;19.48;;;10.25;;
75038;SDS011;63609;49.992;14.512;2023-05-20T09:50:31;11.63;;;7.18;;
75038;SDS011;63609;49.992;14.512;2023-05-20T09:53:01;9.88;;;6.80;;
75038;SDS011;63609;49.992;14.512;2023-05-20T09:55:29;9.85;;;7.35;;
75038;SDS011;63609;49.992;14.512;2023-05-20T09:57:57;13.18;;;7.18;;
75038;SDS011;63609;49.992;14.512;2023-05-20T10:00:27;14.05;;;7.13;;
75038;SDS011;63609;49.992;14.512;2023-05-20T10:02:55;10.75;;;6.65;;
75038;SDS011;63609;49.992;14.512;2023-05-20T10:13:58;11.65;;;8.00;;
75038;SDS011;63609;49.992;14.512;2023-05-20T10:19:22;11.60;;;8.15;;
75038;SDS011;63609;49.992;14.512;2023-05-20T10:27:02;12.07;;;7.43;;
75038;SDS011;63609;49.992;14.512;2023-05-20T10:29:43;13.40;;;8.48;;
75038;SDS011;63609;49.992;14.512;2023-05-20T10:32:22;13.13;;;8.48;;
75038;SDS011;63609;49.992;14.512;2023-05-20T10:34:57;12.07;;;8.18;;
75038;SDS011;63609;49.992;14.512;2023-05-20T10:37:43;12.30;;;8.48;;
75038;SDS011;63609;49.992;14.512;2023-05-20T10:40:12;14.07;;;9.15;;
75038;SDS011;63609;49.992;14.512;2023-05-20T10:42:40;14.18;;;9.02;;
75038;SDS011;63609;49.992;14.512;2023-05-20T10:45:08;15.05;;;10.00;;
75038;SDS011;63609;49.992;14.512;2023-05-20T10:47:36;12.70;;;8.68;;
75038;SDS011;63609;49.992;14.512;2023-05-20T10:50:32;14.55;;;8.98;;
75038;SDS011;63609;49.992;14.512;2023-05-20T10:53:06;12.98;;;8.63;;
75038;SDS011;63609;49.992;14.512;2023-05-20T10:55:55;16.33;;;9.27;;
75038;SDS011;63609;49.992;14.512;2023-05-20T10:58:23;13.77;;;8.98;;
75038;SDS011;63609;49.992;14.512;2023-05-20T11:00:52;15.25;;;9.23;;
75038;SDS011;63609;49.992;14.512;2023-05-20T11:03:20;15.52;;;9.13;;
75038;SDS011;63609;49.992;14.512;2023-05-20T11:05:48;13.18;;;8.68;;
75038;SDS011;63609;49.992;14.512;2023-05-20T11:08:16;14.05;;;8.32;;
75038;SDS011;63609;49.992;14.512;2023-05-20T11:10:56;13.00;;;8.73;;
75038;SDS011;63609;49.992;14.512;2023-05-20T11:13:24;12.65;;;8.52;;
75038;SDS011;63609;49.992;14.512;2023-05-20T11:15:52;14.77;;;9.48;;
75038;SDS011;63609;49.992;14.512;2023-05-20T11:18:22;14.10;;;9.48;;
75038;SDS011;63609;49.992;14.512;2023-05-20T11:20:48;14.60;;;8.75;;
75038;SDS011;63609;49.992;14.512;2023-05-20T11:23:16;10.20;;;6.97;;
75038;SDS011;63609;49.992;14.512;2023-05-20T11:25:43;12.85;;;7.85;;
75038;SDS011;63609;49.992;14.512;2023-05-20T11:28:13;11.30;;;8.02;;
75038;SDS011;63609;49.992;14.512;2023-05-20T11:30:41;10.25;;;7.28;;
75038;SDS011;63609;49.992;14.512;2023-05-20T11:33:10;9.65;;;6.85;;
75038;SDS011;63609;49.992;14.512;2023-05-20T11:35:44;12.35;;;7.45;;
75038;SDS011;63609;49.992;14.512;2023-05-20T11:38:15;10.45;;;6.32;;
75038;SDS011;63609;49.992;14.512;2023-05-20T11:40:46;10.80;;;7.60;;
75038;SDS011;63609;49.992;14.512;2023-05-20T11:43:17;12.30;;;7.43;;
75038;SDS011;63609;49.992;14.512;2023-05-20T11:45:45;11.02;;;7.38;;
75038;SDS011;63609;49.992;14.512;2023-05-20T11:48:17;17.63;;;7.60;;
75038;SDS011;63609;49.992;14.512;2023-05-20T11:50:45;11.20;;;7.25;;
75038;SDS011;63609;49.992;14.512;2023-05-20T11:53:17;12.93;;;7.57;;
75038;SDS011;63609;49.992;14.512;2023-05-20T11:56:04;12.80;;;7.90;;
75038;SDS011;63609;49.992;14.512;2023-05-20T11:58:33;10.68;;;6.93;;
75038;SDS011;63609;49.992;14.512;2023-05-20T12:00:59;10.95;;;7.28;;
75038;SDS011;63609;49.992;14.512;2023-05-20T12:03:46;11.75;;;7.25;;
75038;SDS011;63609;49.992;14.512;2023-05-20T12:06:13;13.50;;;8.20;;
75038;SDS011;63609;49.992;14.512;2023-05-20T12:08:42;11.68;;;7.85;;
75038;SDS011;63609;49.992;14.512;2023-05-20T12:11:09;10.95;;;7.20;;
75038;SDS011;63609;49.992;14.512;2023-05-20T12:13:36;11.48;;;8.00;;
75038;SDS011;63609;49.992;14.512;2023-05-20T12:16:04;11.10;;;7.28;;
75038;SDS011;63609;49.992;14.512;2023-05-20T12:18:31;11.70;;;7.80;;
75038;SDS011;63609;49.992;14.512;2023-05-20T12:20:59;13.15;;;8.25;;
75038;SDS011;63609;49.992;14.512;2023-05-20T12:23:27;11.95;;;7.53;;
75038;SDS011;63609;49.992;14.512;2023-05-20T12:25:56;12.10;;;8.38;;
75038;SDS011;63609;49.992;14.512;2023-05-20T12:28:23;11.88;;;7.93;;
75038;SDS011;63609;49.992;14.512;2023-05-20T12:30:50;11.75;;;7.75;;
75038;SDS011;63609;49.992;14.512;2023-05-20T12:33:17;11.98;;;7.72;;
75038;SDS011;63609;49.992;14.512;2023-05-20T12:35:46;15.40;;;7.90;;
75038;SDS011;63609;49.992;14.512;2023-05-20T12:38:13;11.20;;;7.38;;
75038;SDS011;63609;49.992;14.512;2023-05-20T12:40:40;11.95;;;7.97;;
75038;SDS011;63609;49.992;14.512;2023-05-20T12:43:07;11.05;;;8.48;;
75038;SDS011;63609;49.992;14.512;2023-05-20T12:45:34;11.63;;;7.22;;
75038;SDS011;63609;49.992;14.512;2023-05-20T12:48:02;13.18;;;7.43;;
75038;SDS011;63609;49.992;14.512;2023-05-20T12:50:30;10.93;;;7.18;;
75038;SDS011;63609;49.992;14.512;2023-05-20T12:52:56;10.52;;;6.78;;
75038;SDS011;63609;49.992;14.512;2023-05-20T12:55:24;10.50;;;6.97;;
75038;SDS011;63609;49.992;14.512;2023-05-20T12:57:50;11.10;;;7.30;;
75038;SDS011;63609;49.992;14.512;2023-05-20T13:00:17;12.25;;;7.72;;
75038;SDS011;63609;49.992;14.512;2023-05-20T13:02:44;10.98;;;7.75;;
75038;SDS011;63609;49.992;14.512;2023-05-20T13:05:12;11.35;;;7.60;;
75038;SDS011;63609;49.992;14.512;2023-05-20T13:07:39;12.13;;;7.20;;
75038;SDS011;63609;49.992;14.512;2023-05-20T13:10:06;12.70;;;7.07;;
75038;SDS011;63609;49.992;14.512;2023-05-20T13:12:33;11.95;;;7.22;;
75038;SDS011;63609;49.992;14.512;2023-05-20T13:15:01;11.98;;;7.90;;
75038;SDS011;63609;49.992;14.512;2023-05-20T13:17:29;14.20;;;7.85;;
75038;SDS011;63609;49.992;14.512;2023-05-20T13:19:59;10.05;;;7.13;;
75038;SDS011;63609;49.992;14.512;2023-05-20T13:22:26;12.52;;;7.47;;
75038;SDS011;63609;49.992;14.512;2023-05-20T13:24:53;11.45;;;7.07;;
75038;SDS011;63609;49.992;14.512;2023-05-20T13:27:21;9.60;;;6.45;;
75038;SDS011;63609;49.992;14.512;2023-05-20T13:29:47;11.00;;;7.25;;
75038;SDS011;63609;49.992;14.512;2023-05-20T13:32:14;10.73;;;7.50;;
75038;SDS011;63609;49.992;14.512;2023-05-20T13:34:41;11.00;;;7.13;;
75038;SDS011;63609;49.992;14.512;2023-05-20T13:37:08;11.10;;;6.60;;
75038;SDS011;63609;49.992;14.512;2023-05-20T13:39:35;9.93;;;6.88;;
75038;SDS011;63609;49.992;14.512;2023-05-20T13:42:03;9.73;;;8.15;;
75038;SDS011;63609;49.992;14.512;2023-05-20T13:44:30;10.88;;;6.50;;
75038;SDS011;63609;49.992;14.512;2023-05-20T13:46:58;11.48;;;6.70;;
75038;SDS011;63609;49.992;14.512;2023-05-20T13:49:25;10.35;;;7.00;;
75038;SDS011;63609;49.992;14.512;2023-05-20T13:51:52;9.63;;;6.50;;
75038;SDS011;63609;49.992;14.512;2023-05-20T13:54:19;9.70;;;6.45;;
75038;SDS011;63609;49.992;14.512;2023-05-20T13:56:47;9.65;;;6.25;;
75038;SDS011;63609;49.992;14.512;2023-05-20T13:59:14;10.68;;;6.00;;
75038;SDS011;63609;49.992;14.512;2023-05-20T14:01:41;9.48;;;6.93;;
75038;SDS011;63609;49.992;14.512;2023-05-20T14:04:12;11.32;;;6.82;;
75038;SDS011;63609;49.992;14.512;2023-05-20T14:06:39;9.63;;;5.93;;
75038;SDS011;63609;49.992;14.512;2023-05-20T14:09:06;9.38;;;6.50;;
75038;SDS011;63609;49.992;14.512;2023-05-20T14:11:34;12.07;;;6.28;;
75038;SDS011;63609;49.992;14.512;2023-05-20T14:14:04;9.57;;;5.97;;
75038;SDS011;63609;49.992;14.512;2023-05-20T14:16:31;7.93;;;6.10;;
75038;SDS011;63609;49.992;14.512;2023-05-20T14:18:58;8.48;;;6.07;;
75038;SDS011;63609;49.992;14.512;2023-05-20T14:21:25;8.95;;;6.18;;
75038;SDS011;63609;49.992;14.512;2023-05-20T14:23:52;9.90;;;6.00;;
75038;SDS011;63609;49.992;14.512;2023-05-20T14:26:20;10.25;;;6.43;;
75038;SDS011;63609;49.992;14.512;2023-05-20T14:28:47;10.50;;;5.95;;
75038;SDS011;63609;49.992;14.512;2023-05-20T14:31:14;10.68;;;6.13;;
75038;SDS011;63609;49.992;14.512;2023-05-20T14:33:41;11.50;;;6.72;;
75038;SDS011;63609;49.992;14.512;2023-05-20T14:36:08;7.70;;;5.80;;
75038;SDS011;63609;49.992;14.512;2023-05-20T14:38:36;10.32;;;5.95;;
75038;SDS011;63609;49.992;14.512;2023-05-20T14:41:03;8.10;;;5.60;;
75038;SDS011;63609;49.992;14.512;2023-05-20T14:43:30;8.27;;;5.78;;
75038;SDS011;63609;49.992;14.512;2023-05-20T14:45:57;9.30;;;5.38;;